Shin Yahagi Maru — D5HX3 — position and weather

sailwx.info

Track history (hours):
 
Tides and Currents Weather Stations Pressure Air Temp Water Temp Dewpoint Dewpoint Depression Visibility Wind Speed Wind Dir Waves Ship Positions

Shin Yahagi Maru

Last reported at 2018-May-01 10:33 UTC. Time now 2018-Jul-15 19:03 UTC.
Position N 34°12' E 137°08'.
Warning: this ship's position is months out of date.

Length 250 m; draft 8.1 m.

Type: Cargo ship. MMSI: 636016806.

Date/timePositionNaut miles runAvg speedWind from/ knotsBaromVisibWave heightAir tempDewpointWater temp
2018-May-01 10:33N 34°12' E 137°08'111.6
2018-May-01 10:26N 34°13' E 137°07'1711.5
2018-May-01 08:58N 34°29' E 137°03'5 9.8
2018-May-01 08:30N 34°33' E 137°00'1110.1
2018-May-01 07:28N 34°44' E 136°59'611.7
2018-May-01 06:58N 34°49' E 136°56'  
2018-Apr-28 05:42N 34°51' E 136°57'0 0.2
2018-Apr-28 05:30N 34°51' E 136°57'0 1.0
2018-Apr-28 05:01N 34°50' E 136°57'3 5.6
2018-Apr-28 04:30N 34°48' E 136°57'5 9.2
2018-Apr-28 04:00N 34°43' E 136°59'5 9.8
2018-Apr-28 03:30N 34°38' E 136°58'11 8.7
2018-Apr-28 02:12N 34°28' E 137°05'25 7.5
2018-Apr-27 22:51N 34°11' E 137°26'  
Track history (hours):
 
Tides and Currents Weather Stations Pressure Air Temp Water Temp Dewpoint Dewpoint Depression Visibility Wind Speed Wind Dir Waves Ship Positions

Shin Yahagi Maru

Last reported at 2018-May-01 10:33 UTC. Time now 2018-Jul-15 19:03 UTC.
Position N 34°12' E 137°08'.
Warning: this ship's position is months out of date.

Length 250 m; draft 8.1 m.

Type: Cargo ship. MMSI: 636016806.

Date/timePositionNaut miles runAvg speedWind from/ knotsBaromVisibWave heightAir tempDewpointWater temp
2018-May-01 10:33N 34°12' E 137°08'111.6
2018-May-01 10:26N 34°13' E 137°07'1711.5
2018-May-01 08:58N 34°29' E 137°03'5 9.8
2018-May-01 08:30N 34°33' E 137°00'1110.1
2018-May-01 07:28N 34°44' E 136°59'611.7
2018-May-01 06:58N 34°49' E 136°56'  
2018-Apr-28 05:42N 34°51' E 136°57'0 0.2
2018-Apr-28 05:30N 34°51' E 136°57'0 1.0
2018-Apr-28 05:01N 34°50' E 136°57'3 5.6
2018-Apr-28 04:30N 34°48' E 136°57'5 9.2
2018-Apr-28 04:00N 34°43' E 136°59'5 9.8
2018-Apr-28 03:30N 34°38' E 136°58'11 8.7
2018-Apr-28 02:12N 34°28' E 137°05'25 7.5
2018-Apr-27 22:51N 34°11' E 137°26'  

Dump ship's entire track history